createdAt,value
2022-08-09T00:02:49.994Z,2.30
2022-08-09T00:06:48.782Z,2.00
2022-08-09T00:10:45.794Z,2.10
2022-08-09T00:14:45.349Z,2.30
2022-08-09T00:18:45.065Z,2.30
2022-08-09T00:22:42.411Z,2.30
2022-08-09T00:26:42.021Z,2.57
2022-08-09T00:30:39.033Z,2.33
2022-08-09T00:34:37.747Z,2.43
2022-08-09T00:38:35.508Z,2.20
2022-08-09T00:44:10.922Z,2.47
2022-08-09T00:46:57.500Z,2.23
2022-08-09T00:51:05.160Z,2.30
2022-08-09T00:55:16.741Z,2.27
2022-08-09T00:59:40.750Z,2.43
2022-08-09T01:03:51.931Z,2.20
2022-08-09T01:08:13.716Z,2.30
2022-08-09T01:12:38.598Z,2.37
2022-08-09T01:16:46.978Z,2.40
2022-08-09T01:21:20.939Z,2.40
2022-08-09T01:26:01.093Z,2.40
2022-08-09T01:30:06.861Z,2.40
2022-08-09T01:34:10.715Z,2.40
2022-08-09T01:38:15.829Z,2.20
2022-08-09T01:42:13.867Z,2.27
2022-08-09T01:46:23.845Z,2.33
2022-08-09T01:50:36.605Z,2.67
2022-08-09T01:54:40.698Z,2.43
2022-08-09T01:58:40.239Z,2.80
2022-08-09T02:02:43.953Z,2.30
2022-08-09T02:07:03.176Z,2.30
2022-08-09T02:11:16.976Z,2.60
2022-08-09T02:15:19.583Z,2.70
2022-08-09T02:19:20.776Z,2.50
2022-08-09T02:23:39.874Z,2.90
2022-08-09T02:28:00.660Z,2.67
2022-08-09T02:32:04.677Z,2.33
2022-08-09T02:36:08.027Z,2.50
2022-08-09T02:40:13.121Z,2.70
2022-08-09T02:44:29.578Z,2.80
2022-08-09T02:48:31.709Z,2.77
2022-08-09T02:52:37.521Z,2.67
2022-08-09T02:56:37.990Z,2.80
2022-08-09T03:00:57.598Z,2.47
2022-08-09T03:04:58.937Z,2.50
2022-08-09T03:09:00.331Z,2.73
2022-08-09T03:13:00.413Z,2.77
2022-08-09T03:17:01.834Z,2.93
2022-08-09T03:21:02.974Z,2.97
2022-08-09T03:25:06.210Z,2.70
2022-08-09T03:29:22.985Z,2.80
2022-08-09T03:33:21.837Z,2.80
2022-08-09T03:37:56.662Z,3.10
2022-08-09T03:41:45.772Z,3.00
2022-08-09T03:46:05.423Z,2.90
2022-08-09T03:50:06.841Z,3.20
2022-08-09T03:54:06.262Z,2.90
2022-08-09T03:58:14.862Z,3.10
2022-08-09T04:02:14.236Z,2.97
2022-08-09T04:06:11.852Z,3.20
2022-08-09T04:10:09.301Z,3.43
2022-08-09T04:14:53.002Z,3.50
2022-08-09T04:18:24.911Z,3.80
2022-08-09T04:22:22.269Z,3.50
2022-08-09T04:26:19.277Z,3.53
2022-08-09T04:30:23.363Z,3.33
2022-08-09T04:34:30.481Z,3.13
2022-08-09T04:38:28.728Z,3.20
2022-08-09T04:42:29.773Z,3.30
2022-08-09T04:46:56.814Z,3.20
2022-08-09T04:50:45.067Z,3.40
2022-08-09T04:54:43.584Z,3.40
2022-08-09T04:58:41.004Z,3.40
2022-08-09T05:02:38.967Z,3.70
2022-08-09T05:06:37.455Z,4.23
2022-08-09T05:10:36.647Z,3.80
2022-08-09T05:14:35.190Z,3.90
2022-08-09T05:18:42.044Z,3.60
2022-08-09T05:23:57.910Z,3.50
2022-08-09T05:27:09.888Z,3.10
2022-08-09T05:31:10.574Z,3.30
2022-08-09T05:35:08.269Z,3.87
2022-08-09T05:39:06.187Z,3.33
2022-08-09T05:43:07.672Z,2.93
2022-08-09T05:47:06.392Z,3.20
2022-08-09T05:51:16.944Z,3.10
2022-08-09T05:55:21.840Z,2.60
2022-08-09T05:59:22.045Z,3.50
2022-08-09T06:03:19.936Z,2.50
2022-08-09T06:07:21.294Z,2.63
2022-08-09T06:11:19.059Z,2.27
2022-08-09T06:15:21.557Z,3.30
2022-08-09T06:19:19.007Z,2.50
2022-08-09T06:23:17.987Z,2.50
2022-08-09T06:27:15.680Z,2.30
2022-08-09T06:31:12.953Z,2.10
2022-08-09T06:35:11.187Z,2.30
2022-08-09T06:39:11.661Z,2.33
2022-08-09T06:43:10.409Z,2.30
2022-08-09T06:47:08.512Z,2.17
2022-08-09T06:51:05.759Z,2.00
2022-08-09T06:55:10.083Z,2.00
2022-08-09T07:00:49.734Z,2.10
2022-08-09T07:03:28.357Z,2.25
2022-08-09T07:07:58.998Z,2.10
2022-08-09T07:11:51.992Z,2.13
2022-08-09T07:16:38.720Z,2.28
2022-08-09T07:20:09.727Z,3.10
2022-08-09T07:24:07.277Z,2.10
2022-08-09T07:28:04.779Z,2.55
2022-08-09T07:32:03.738Z,1.92
2022-08-09T07:36:00.762Z,2.00
2022-08-09T07:39:58.195Z,2.28
2022-08-09T07:43:56.710Z,1.92
2022-08-09T07:48:01.678Z,3.60
2022-08-09T07:52:05.013Z,2.15
2022-08-09T07:56:27.136Z,2.00
2022-08-09T08:00:36.117Z,2.00
2022-08-09T08:04:34.291Z,2.08
2022-08-09T08:09:02.145Z,1.70
2022-08-09T08:12:49.445Z,1.85
2022-08-09T08:17:00.829Z,2.03
2022-08-09T08:21:03.515Z,2.00
2022-08-09T08:25:00.509Z,2.10
2022-08-09T08:28:57.490Z,1.80
2022-08-09T08:32:54.825Z,1.75
2022-08-09T08:36:51.834Z,1.85
2022-08-09T08:40:50.167Z,1.73
2022-08-09T08:44:57.740Z,1.67
2022-08-09T08:48:56.021Z,1.90
2022-08-09T08:52:59.485Z,2.00
2022-08-09T08:56:58.606Z,1.88
2022-08-09T09:00:58.261Z,2.00
2022-08-09T09:04:59.347Z,2.10
2022-08-09T09:09:06.812Z,2.10
2022-08-09T09:13:19.456Z,2.20
2022-08-09T09:17:21.134Z,2.13
2022-08-09T09:21:26.043Z,1.90
2022-08-09T09:26:00.868Z,2.15
2022-08-09T09:30:26.230Z,2.20
2022-08-09T09:34:29.945Z,2.13
2022-08-09T09:38:56.923Z,2.13
2022-08-09T09:42:57.897Z,1.98
2022-08-09T09:47:16.435Z,2.25
2022-08-09T09:51:26.213Z,2.10
2022-08-09T09:56:05.253Z,1.92
2022-08-09T10:00:03.378Z,2.10
2022-08-09T10:04:16.265Z,2.17
2022-08-09T10:08:28.468Z,2.10
2022-08-09T10:12:51.782Z,2.30
2022-08-09T10:16:57.813Z,2.20
2022-08-09T10:21:11.083Z,2.10
2022-08-09T10:25:12.293Z,2.47
2022-08-09T10:29:37.557Z,2.10
2022-08-09T10:34:11.161Z,1.90
2022-08-09T10:37:49.181Z,1.95
2022-08-09T10:41:49.583Z,1.90
2022-08-09T10:45:58.499Z,1.60
2022-08-09T10:50:21.089Z,1.67
2022-08-09T10:54:28.181Z,1.75
2022-08-09T10:58:35.340Z,1.80
2022-08-09T11:03:15.364Z,2.00
2022-08-09T11:07:01.534Z,1.75
2022-08-09T11:11:08.797Z,1.70
2022-08-09T11:15:33.839Z,1.90
2022-08-09T11:20:11.775Z,1.60
2022-08-09T11:24:19.599Z,1.63
2022-08-09T11:28:56.284Z,1.75
2022-08-09T11:33:03.295Z,1.60
2022-08-09T11:37:02.589Z,1.80
2022-08-09T11:41:14.248Z,1.80
2022-08-09T11:45:42.785Z,1.70
2022-08-09T11:50:56.658Z,1.90
2022-08-09T11:54:27.500Z,1.73
2022-08-09T11:58:33.631Z,1.70
2022-08-09T12:02:37.069Z,1.73
2022-08-09T12:06:36.303Z,1.70
2022-08-09T12:10:40.037Z,1.80
2022-08-09T12:14:58.920Z,1.75
2022-08-09T12:18:56.236Z,1.92
2022-08-09T12:23:01.255Z,1.92
2022-08-09T12:29:13.894Z,2.00
2022-08-09T12:31:58.202Z,1.90
2022-08-09T12:35:40.805Z,1.92
2022-08-09T12:39:40.160Z,1.83
2022-08-09T12:44:05.529Z,1.80
2022-08-09T12:47:56.263Z,1.80
2022-08-09T12:52:01.058Z,2.03
2022-08-09T12:56:40.009Z,1.98
2022-08-09T13:00:43.976Z,1.70
2022-08-09T13:05:02.636Z,1.80
2022-08-09T13:09:06.135Z,1.80
2022-08-09T13:13:11.280Z,1.70
2022-08-09T13:17:21.919Z,1.90
2022-08-09T13:22:36.525Z,1.75
2022-08-09T13:25:54.598Z,2.05
2022-08-09T13:30:51.141Z,2.00
2022-08-09T13:34:30.386Z,2.28
2022-08-09T13:38:54.189Z,1.90
2022-08-09T13:42:47.410Z,1.90
2022-08-09T13:47:29.520Z,1.73
2022-08-09T13:51:03.681Z,1.55
2022-08-09T13:55:05.121Z,2.10
2022-08-09T13:59:04.472Z,1.88
2022-08-09T14:03:03.664Z,1.85
2022-08-09T14:07:13.715Z,1.73
2022-08-09T14:11:16.087Z,1.80
2022-08-09T14:15:13.493Z,1.70
2022-08-09T14:19:33.563Z,1.92
2022-08-09T14:23:40.360Z,1.75
2022-08-09T14:27:58.454Z,1.83
2022-08-09T14:31:56.394Z,1.90
2022-08-09T14:35:54.565Z,1.70
2022-08-09T14:39:51.607Z,2.10
2022-08-09T14:43:53.730Z,1.73
2022-08-09T14:47:58.407Z,1.67
2022-08-09T14:51:58.609Z,1.70
2022-08-09T14:55:56.218Z,1.73
2022-08-09T14:59:53.287Z,1.67
2022-08-09T15:03:50.357Z,1.70
2022-08-09T15:07:56.014Z,1.60
2022-08-09T15:11:54.099Z,1.73
2022-08-09T15:15:51.899Z,1.80
2022-08-09T15:19:54.538Z,1.90
2022-08-09T15:24:05.959Z,1.90
2022-08-09T15:28:27.149Z,1.80
2022-08-09T15:32:29.813Z,2.10
2022-08-09T15:36:36.638Z,1.63
2022-08-09T15:40:33.782Z,1.75
2022-08-09T15:44:32.687Z,1.77
2022-08-09T15:48:31.926Z,1.70
2022-08-09T15:52:29.310Z,1.70
2022-08-09T15:56:29.335Z,1.90
2022-08-09T16:00:28.232Z,1.70
2022-08-09T16:04:25.307Z,1.80
2022-08-09T16:08:30.803Z,1.80
2022-08-09T16:12:30.803Z,1.80
2022-08-09T16:16:31.417Z,1.67
2022-08-09T16:20:30.551Z,1.60
2022-08-09T16:24:32.795Z,1.73
2022-08-09T16:28:31.116Z,1.70
2022-08-09T16:32:49.542Z,1.70
2022-08-09T16:36:46.854Z,1.80
2022-08-09T16:40:44.014Z,1.70
2022-08-09T16:44:42.959Z,1.63
2022-08-09T16:48:53.274Z,2.00
2022-08-09T16:52:52.978Z,1.80
2022-08-09T16:56:50.819Z,1.90
2022-08-09T17:00:49.662Z,1.80
2022-08-09T17:04:47.031Z,1.80
2022-08-09T17:09:01.715Z,2.08
2022-08-09T17:13:02.821Z,1.90
2022-08-09T17:17:26.400Z,2.00
2022-08-09T17:21:22.179Z,1.88
2022-08-09T17:25:20.467Z,1.80
2022-08-09T17:29:21.030Z,3.10
2022-08-09T17:33:22.308Z,2.40
2022-08-09T17:37:21.139Z,1.85
2022-08-09T17:41:18.327Z,1.73
2022-08-09T17:45:37.367Z,1.90
2022-08-09T17:49:35.382Z,2.03
2022-08-09T17:53:32.367Z,2.25
2022-08-09T17:58:03.713Z,1.85
2022-08-09T18:02:06.770Z,1.75
2022-08-09T18:06:22.385Z,1.40
2022-08-09T18:10:29.443Z,1.50
2022-08-09T18:14:26.673Z,1.40
2022-08-09T18:18:26.025Z,1.40
2022-08-09T18:22:34.006Z,1.83
2022-08-09T18:26:31.932Z,1.88
2022-08-09T18:30:42.420Z,1.40
2022-08-09T18:34:46.134Z,1.50
2022-08-09T18:38:45.328Z,1.40
2022-08-09T18:42:44.790Z,1.60
2022-08-09T18:46:51.472Z,1.70
2022-08-09T18:51:01.104Z,1.30
2022-08-09T18:54:58.183Z,1.45
2022-08-09T18:58:57.175Z,1.33
2022-08-09T19:02:54.557Z,1.33
2022-08-09T19:06:55.062Z,1.63
2022-08-09T19:10:52.051Z,1.27
2022-08-09T19:14:51.714Z,1.60
2022-08-09T19:18:49.126Z,1.70
2022-08-09T19:22:54.203Z,1.60
2022-08-09T19:26:51.970Z,2.08
2022-08-09T19:30:48.981Z,1.42
2022-08-09T19:34:49.718Z,1.50
2022-08-09T19:38:51.835Z,1.50
2022-08-09T19:42:49.757Z,1.73
2022-08-09T19:46:50.857Z,1.40
2022-08-09T19:50:53.980Z,1.58
2022-08-09T19:54:51.428Z,1.63
2022-08-09T19:58:56.496Z,1.60
2022-08-09T20:04:26.524Z,1.33
2022-08-09T20:07:22.792Z,1.60
2022-08-09T20:11:21.465Z,1.42
2022-08-09T20:16:34.221Z,1.40
2022-08-09T20:19:48.353Z,1.50
2022-08-09T20:23:50.806Z,1.40
2022-08-09T20:27:48.945Z,1.70
2022-08-09T20:32:16.962Z,1.63
2022-08-09T20:36:03.343Z,1.80
2022-08-09T20:40:15.255Z,1.60
2022-08-09T20:44:15.270Z,1.70
2022-08-09T20:48:23.343Z,1.50
2022-08-09T20:52:20.726Z,1.40
2022-08-09T20:56:22.119Z,1.40
2022-08-09T21:00:31.357Z,1.60
2022-08-09T21:05:54.620Z,1.67
2022-08-09T21:08:52.757Z,1.70
2022-08-09T21:16:55.088Z,2.00
2022-08-09T21:20:54.474Z,2.03
2022-08-09T21:25:11.771Z,1.80
2022-08-09T21:29:11.645Z,1.90
2022-08-09T21:33:10.915Z,1.92
2022-08-09T21:37:17.946Z,1.83
2022-08-09T21:41:17.106Z,2.00
2022-08-09T21:45:15.782Z,2.10
2022-08-09T21:49:14.531Z,2.00
2022-08-09T21:53:23.894Z,2.30
2022-08-09T21:57:38.815Z,2.00
2022-08-09T22:02:00.564Z,2.40
2022-08-09T22:05:58.721Z,2.30
2022-08-09T22:09:56.383Z,2.55
2022-08-09T22:13:53.843Z,2.20
2022-08-09T22:17:51.198Z,2.30
2022-08-09T22:21:51.039Z,2.20
2022-08-09T22:26:12.171Z,2.10
2022-08-09T22:30:06.019Z,2.30
2022-08-09T22:34:14.405Z,2.20
2022-08-09T22:38:11.633Z,2.42
2022-08-09T22:42:20.965Z,2.53
2022-08-09T22:48:14.689Z,2.60
2022-08-09T22:50:36.671Z,2.53
2022-08-09T22:54:33.902Z,2.42
2022-08-09T22:58:33.585Z,2.45
2022-08-09T23:02:31.845Z,2.30
2022-08-09T23:06:48.852Z,2.70
2022-08-09T23:10:45.831Z,2.60
2022-08-09T23:14:44.720Z,2.70
2022-08-09T23:18:43.167Z,2.47
2022-08-09T23:22:40.416Z,2.43
2022-08-09T23:26:39.161Z,2.60
2022-08-09T23:30:36.175Z,2.50
2022-08-09T23:34:33.189Z,2.50
2022-08-09T23:38:31.494Z,2.43
2022-08-09T23:42:28.580Z,2.70
2022-08-09T23:46:26.744Z,2.20
2022-08-09T23:50:23.775Z,2.60
2022-08-09T23:54:26.488Z,2.70
2022-08-09T23:58:29.591Z,2.43
